Tacoma, WA (98403)

5:50 PM PST on January 21, 2017 (GMT -0800)
North Tacoma | | Change Station

Elev 295 ft 47.27 °N, 122.48 °W | Updated 31 seconds ago

Rain
Rain
44.7 °F
Feels Like 45 °F
N
3.0
Wind Variable Wind from SSW
Gusts 5.0 mph

Today
High -- | Low -- °F
--% Chance of Precip.
Yesterday
High -- | Low -- °F
Precip. -- in
Pressure 29.49 in
Visibility 10.0 miles
Clouds Scattered Clouds 4300 ft
Overcast 5000 ft
Windchill 45 °F
Dew Point 42 °F
Humidity 92%
Rainfall 0.02 in
Snow Depth Not available.
7:47 AM 4:55 PM
Waning Crescent, 30% visible
METAR KTIW 220053Z 00000KT 10SM SCT043 OVC050 07/07 A2948 RMK AO2 RAE24 SLP987 P0001 T00670067
Pressure 29.49 in
Visibility 10.0 miles
Clouds Scattered Clouds 4300 ft
Overcast 5000 ft
Windchill 45 °F
Dew Point 42 °F
Humidity 92%
Rainfall 0.02 in
Snow Depth Not available.
7:47 AM 4:55 PM
Waning Crescent, 30% visible
METAR KTIW 220053Z 00000KT 10SM SCT043 OVC050 07/07 A2948 RMK AO2 RAE24 SLP987 P0001 T00670067

Get Your Daily Forecast Email!

Thanks for signing up!

Be on the lookout for a verification email in your inbox.

You'll start receiving the daily forecast at 8 AM.

×

10-Day Weather Forecast

Almanac

Astronomy

Jan. 21, 2017 Rise Set
Actual Time
Civil Twilight
Nautical Twilight
Astronomical Twilight
Moon
Length of Visible Light
Length of Day
Tomorrow will be .
, % of the Moon is Illuminated

Today's Extremes

State Highs State Lows

Community

WunderPhotos

Upload Photos

1,962,540 photos uploaded!

WunderBlog® & News

Nearby

Air Quality

  Air Quality AQ Index Pollutant
Not available.

Snow Depth

Station Depth Elevation

Earthquake Activity

City Distance Mag. Time & Date
Minimum magnitude displayed is 2.5.

Coastal Water Temperatures

Place Temperature

Stations

Nearby Weather Stations

Station Location Temp. Windchill Dew Point Humidity Wind Precip. Elev Updated Type
                   

Watches & Warnings

There are currently no watches in effect.